Time;durP1;ratioP1;P1;durP2;ratioP2;P2;SDS_P1;SDS_P2;PMS_P1;PMS_P2;Temp;Humidity;BMP_temperature;BMP_pressure;BME280_temperature;BME280_humidity;BME280_pressure;Samples;Min_cycle;Max_cycle;Signal;HPM_P1;HPM_P2
2022/02/19 00:02:01;;;;;;;4.77;1.77;;;;;;;;;;5040648;28;20671;-72
2022/02/19 00:04:29;;;;;;;3.27;1.20;;;;;;;;;;5040770;28;20235;-72
2022/02/19 00:06:58;;;;;;;1.73;1.27;;;;;;;;;;5040266;28;20641;-71
2022/02/19 00:09:26;;;;;;;1.83;1.30;;;;;;;;;;5027653;28;20203;-71
2022/02/19 00:11:54;;;;;;;6.47;1.60;;;;;;;;;;5040393;28;20685;-71
2022/02/19 00:14:22;;;;;;;6.80;1.97;;;;;;;;;;5040144;28;20674;-71
2022/02/19 00:16:51;;;;;;;6.93;1.67;;;;;;;;;;5040351;28;20258;-71
2022/02/19 00:19:19;;;;;;;3.90;1.60;;;;;;;;;;5040342;28;20290;-71
2022/02/19 00:21:47;;;;;;;11.67;1.67;;;;;;;;;;5040278;28;20302;-71
2022/02/19 00:24:17;;;;;;;4.47;1.20;;;;;;;;;;5040372;28;20241;-71
2022/02/19 00:26:45;;;;;;;5.57;1.50;;;;;;;;;;5040155;28;20297;-71
2022/02/19 00:29:13;;;;;;;8.00;1.90;;;;;;;;;;5040224;28;20572;-71
2022/02/19 00:31:41;;;;;;;4.43;1.10;;;;;;;;;;5040049;28;20628;-71
2022/02/19 00:34:09;;;;;;;2.90;1.60;;;;;;;;;;5040220;28;20318;-71
2022/02/19 00:36:37;;;;;;;6.87;1.67;;;;;;;;;;5039767;28;20672;-71
2022/02/19 00:39:05;;;;;;;5.33;1.80;;;;;;;;;;5039929;28;20290;-71
2022/02/19 00:41:37;;;;;;;2.67;1.07;;;;;;;;;;5040029;28;20235;-71
2022/02/19 00:44:05;;;;;;;4.97;1.33;;;;;;;;;;5040164;28;20234;-71
2022/02/19 00:46:34;;;;;;;6.17;1.33;;;;;;;;;;5039686;28;20246;-71
2022/02/19 00:49:03;;;;;;;5.23;1.40;;;;;;;;;;5039457;28;20213;-71
2022/02/19 00:51:31;;;;;;;7.40;1.07;;;;;;;;;;5039740;28;20218;-71
2022/02/19 00:54:00;;;;;;;4.53;1.97;;;;;;;;;;5039720;28;20231;-72
2022/02/19 00:56:28;;;;;;;6.93;1.83;;;;;;;;;;5039671;28;20262;-71
2022/02/19 00:58:57;;;;;;;4.70;1.90;;;;;;;;;;5039680;28;20243;-71
2022/02/19 01:01:25;;;;;;;6.50;2.57;;;;;;;;;;5039514;28;20287;-71
2022/02/19 01:03:54;;;;;;;6.77;2.40;;;;;;;;;;5039744;28;20235;-71
2022/02/19 01:06:22;;;;;;;6.40;2.93;;;;;;;;;;5039257;28;20729;-71
2022/02/19 01:08:51;;;;;;;4.93;2.60;;;;;;;;;;5039329;28;20238;-71
2022/02/19 01:11:20;;;;;;;13.47;2.90;;;;;;;;;;5039228;28;20290;-71
2022/02/19 01:13:48;;;;;;;6.53;3.00;;;;;;;;;;5039500;28;20235;-71
2022/02/19 01:16:18;;;;;;;7.97;2.57;;;;;;;;;;5039261;28;20302;-71
2022/02/19 01:18:46;;;;;;;8.17;2.60;;;;;;;;;;5039626;28;20272;-71
2022/02/19 01:21:16;;;;;;;3.53;2.20;;;;;;;;;;5039500;28;20250;-72
2022/02/19 01:23:44;;;;;;;4.17;1.90;;;;;;;;;;5039041;28;20687;-71
2022/02/19 01:26:12;;;;;;;4.07;1.70;;;;;;;;;;5039261;28;20255;-71
2022/02/19 01:28:40;;;;;;;4.87;1.60;;;;;;;;;;5039257;28;20266;-71
2022/02/19 01:31:08;;;;;;;5.13;1.80;;;;;;;;;;5038985;28;20286;-71
2022/02/19 01:33:37;;;;;;;5.83;1.83;;;;;;;;;;5039077;28;20286;-71
2022/02/19 01:36:05;;;;;;;6.13;1.93;;;;;;;;;;5038631;28;20597;-71
2022/02/19 01:38:33;;;;;;;4.80;1.90;;;;;;;;;;5038981;28;20242;-71
2022/02/19 01:41:01;;;;;;;9.67;2.10;;;;;;;;;;5039083;28;20208;-71
2022/02/19 01:43:29;;;;;;;2.93;1.60;;;;;;;;;;5039263;28;20267;-72
2022/02/19 01:45:57;;;;;;;2.10;1.30;;;;;;;;;;5038558;28;20662;-72
2022/02/19 01:48:25;;;;;;;4.67;1.57;;;;;;;;;;5038740;28;20771;-71
2022/02/19 01:50:55;;;;;;;6.00;1.97;;;;;;;;;;5038293;28;20730;-71
2022/02/19 01:53:23;;;;;;;3.03;1.00;;;;;;;;;;5038646;28;20291;-71
2022/02/19 01:55:53;;;;;;;2.33;1.17;;;;;;;;;;5038486;28;20309;-71
2022/02/19 01:58:21;;;;;;;6.93;1.40;;;;;;;;;;5038612;28;20296;-71
2022/02/19 02:00:49;;;;;;;6.17;1.33;;;;;;;;;;5037598;28;20289;-71
2022/02/19 02:03:17;;;;;;;5.00;1.20;;;;;;;;;;5038482;28;20702;-71
2022/02/19 02:05:46;;;;;;;4.80;1.20;;;;;;;;;;5037862;28;20642;-71
2022/02/19 02:08:15;;;;;;;3.07;1.27;;;;;;;;;;5038285;28;20234;-72
2022/02/19 02:10:44;;;;;;;3.83;1.37;;;;;;;;;;5038056;28;20239;-71
2022/02/19 02:13:12;;;;;;;6.07;1.47;;;;;;;;;;5038405;28;20211;-71
2022/02/19 02:15:40;;;;;;;6.93;1.53;;;;;;;;;;5038164;28;20314;-71
2022/02/19 02:18:08;;;;;;;2.43;1.27;;;;;;;;;;5038060;28;20579;-71
2022/02/19 02:20:36;;;;;;;7.30;1.40;;;;;;;;;;5037984;28;20239;-71
2022/02/19 02:23:07;;;;;;;4.57;1.60;;;;;;;;;;5037714;28;20298;-71
2022/02/19 02:25:35;;;;;;;8.30;1.30;;;;;;;;;;5038308;28;20250;-71
2022/02/19 02:28:09;;;;;;;4.60;1.43;;;;;;;;;;5037951;28;20748;-71
2022/02/19 02:30:37;;;;;;;6.03;1.47;;;;;;;;;;5038186;28;20294;-71
2022/02/19 02:33:08;;;;;;;10.73;2.03;;;;;;;;;;5038125;28;20246;-71
2022/02/19 02:35:36;;;;;;;4.83;1.60;;;;;;;;;;5037918;28;20259;-71
2022/02/19 02:38:04;;;;;;;6.10;1.83;;;;;;;;;;5037494;28;20733;-70
2022/02/19 02:40:34;;;;;;;6.50;1.83;;;;;;;;;;5037809;28;20730;-71
2022/02/19 02:43:02;;;;;;;4.07;1.57;;;;;;;;;;5037659;28;20298;-71
2022/02/19 02:45:30;;;;;;;5.63;1.53;;;;;;;;;;5037604;28;20749;-70
2022/02/19 02:48:18;;;;;;;7.33;1.77;;;;;;;;;;5037950;28;20211;-70
2022/02/19 02:50:46;;;;;;;6.00;1.77;;;;;;;;;;5037600;28;20238;-70
2022/02/19 02:53:34;;;;;;;5.57;1.50;;;;;;;;;;5037629;28;20208;-70
2022/02/19 02:56:04;;;;;;;6.03;1.70;;;;;;;;;;5037525;28;20291;-70
2022/02/19 02:58:32;;;;;;;6.57;1.57;;;;;;;;;;5037723;28;20243;-70
2022/02/19 03:01:00;;;;;;;4.53;2.00;;;;;;;;;;5037762;28;20291;-71
2022/02/19 03:03:28;;;;;;;4.93;1.50;;;;;;;;;;5037803;28;20211;-70
2022/02/19 03:05:56;;;;;;;4.73;1.43;;;;;;;;;;5037283;28;20262;-70
2022/02/19 03:08:24;;;;;;;4.43;1.40;;;;;;;;;;5036036;28;20295;-71
2022/02/19 03:10:52;;;;;;;5.40;1.63;;;;;;;;;;5036986;28;20335;-70
2022/02/19 03:13:22;;;;;;;5.13;1.70;;;;;;;;;;5037583;28;20212;-71
2022/02/19 03:15:50;;;;;;;7.80;2.10;;;;;;;;;;5037008;28;20318;-70
2022/02/19 03:18:18;;;;;;;8.07;1.90;;;;;;;;;;5037500;28;20286;-70
2022/02/19 03:20:47;;;;;;;4.87;1.77;;;;;;;;;;5037306;28;20290;-70
2022/02/19 03:23:15;;;;;;;8.00;1.80;;;;;;;;;;5037043;28;20211;-70
2022/02/19 03:25:43;;;;;;;5.20;1.53;;;;;;;;;;5037508;28;20318;-71
2022/02/19 03:28:11;;;;;;;6.23;1.83;;;;;;;;;;5037474;28;20235;-71
2022/02/19 03:30:40;;;;;;;7.77;1.77;;;;;;;;;;5037470;28;20239;-70
2022/02/19 03:33:08;;;;;;;5.10;1.60;;;;;;;;;;5037024;28;20655;-70
2022/02/19 03:35:36;;;;;;;8.77;2.00;;;;;;;;;;5037003;28;20636;-70
2022/02/19 03:38:04;;;;;;;5.07;1.47;;;;;;;;;;5037009;28;20249;-70
2022/02/19 03:40:32;;;;;;;11.07;1.87;;;;;;;;;;5037464;28;20238;-70
2022/02/19 03:43:01;;;;;;;6.27;1.77;;;;;;;;;;5037055;28;20290;-71
2022/02/19 03:45:29;;;;;;;4.37;1.40;;;;;;;;;;5037325;28;20258;-71
2022/02/19 03:47:59;;;;;;;4.87;1.77;;;;;;;;;;5037415;28;20286;-71
2022/02/19 03:50:27;;;;;;;6.93;1.27;;;;;;;;;;5037259;28;20250;-71
2022/02/19 03:52:55;;;;;;;7.63;1.63;;;;;;;;;;5036796;28;20573;-71
2022/02/19 03:55:23;;;;;;;6.50;1.77;;;;;;;;;;5037069;28;20318;-71
2022/02/19 03:57:51;;;;;;;9.33;2.03;;;;;;;;;;5037108;28;20207;-71
2022/02/19 04:00:19;;;;;;;9.90;1.97;;;;;;;;;;5037093;28;20619;-70
2022/02/19 04:02:48;;;;;;;3.70;1.50;;;;;;;;;;5037141;28;20246;-70
2022/02/19 04:05:17;;;;;;;7.63;2.10;;;;;;;;;;5036804;28;20665;-70
2022/02/19 04:07:47;;;;;;;11.77;2.30;;;;;;;;;;5036658;28;20282;-71
2022/02/19 04:10:15;;;;;;;7.07;1.70;;;;;;;;;;5036829;28;20322;-71
2022/02/19 04:12:43;;;;;;;5.30;2.47;;;;;;;;;;5036862;28;20243;-71
2022/02/19 04:15:11;;;;;;;12.63;2.07;;;;;;;;;;5036886;28;20290;-71
2022/02/19 04:17:40;;;;;;;7.27;2.13;;;;;;;;;;5037003;28;20239;-71
2022/02/19 04:20:08;;;;;;;7.13;1.53;;;;;;;;;;5036801;28;20290;-71
2022/02/19 04:22:39;;;;;;;5.97;1.93;;;;;;;;;;5037022;28;20246;-71
2022/02/19 04:25:07;;;;;;;8.53;1.97;;;;;;;;;;5040447;28;20217;-71
2022/02/19 04:27:35;;;;;;;7.47;1.93;;;;;;;;;;5040723;28;20235;-70
2022/02/19 04:30:03;;;;;;;9.20;2.17;;;;;;;;;;5040159;28;20310;-70
2022/02/19 04:32:31;;;;;;;9.83;1.90;;;;;;;;;;5040100;28;20649;-70
2022/02/19 04:34:59;;;;;;;6.23;1.63;;;;;;;;;;5040041;28;20262;-70
2022/02/19 04:37:27;;;;;;;5.93;2.90;;;;;;;;;;5040022;28;20263;-70
2022/02/19 04:39:57;;;;;;;9.93;2.33;;;;;;;;;;5039907;28;20242;-71
2022/02/19 04:42:25;;;;;;;10.47;2.27;;;;;;;;;;5040023;28;20646;-70
2022/02/19 04:44:53;;;;;;;8.57;1.73;;;;;;;;;;5040100;28;20271;-71
2022/02/19 04:47:21;;;;;;;7.80;1.70;;;;;;;;;;5039913;28;20239;-71
2022/02/19 04:49:50;;;;;;;8.37;1.93;;;;;;;;;;5040027;28;20362;-70
2022/02/19 04:52:18;;;;;;;6.30;1.80;;;;;;;;;;5039789;28;20239;-70
2022/02/19 04:54:46;;;;;;;6.37;1.60;;;;;;;;;;5039785;28;20771;-70
2022/02/19 04:57:15;;;;;;;17.07;2.27;;;;;;;;;;5039694;28;20227;-70
2022/02/19 04:59:44;;;;;;;9.97;1.90;;;;;;;;;;5039882;28;20246;-70
2022/02/19 05:02:12;;;;;;;9.77;2.80;;;;;;;;;;5039491;28;20726;-70
2022/02/19 05:04:39;;;;;;;9.60;2.03;;;;;;;;;;5033955;28;20734;-71
2022/02/19 05:07:07;;;;;;;8.07;1.83;;;;;;;;;;5029807;28;20220;-70
2022/02/19 05:09:35;;;;;;;4.00;1.63;;;;;;;;;;5030459;28;20238;-70
2022/02/19 05:12:04;;;;;;;9.77;2.10;;;;;;;;;;5011481;28;20649;-70
2022/02/19 05:14:33;;;;;;;11.07;2.33;;;;;;;;;;5011234;28;20209;-70
2022/02/19 05:17:01;;;;;;;8.17;1.87;;;;;;;;;;5011322;28;20259;-70
2022/02/19 05:19:29;;;;;;;11.50;2.87;;;;;;;;;;5010432;28;20227;-70
2022/02/19 05:21:57;;;;;;;10.73;2.00;;;;;;;;;;5009606;28;20284;-70
2022/02/19 05:24:25;;;;;;;6.03;1.87;;;;;;;;;;5012020;28;20204;-70
2022/02/19 05:26:53;;;;;;;9.00;2.20;;;;;;;;;;5010797;28;20267;-70
2022/02/19 05:29:21;;;;;;;8.53;1.73;;;;;;;;;;5009745;28;20268;-70
2022/02/19 05:31:51;;;;;;;11.93;2.60;;;;;;;;;;5012419;28;20251;-70
2022/02/19 05:34:19;;;;;;;8.43;3.03;;;;;;;;;;5010003;28;20285;-70
2022/02/19 05:36:46;;;;;;;8.60;1.87;;;;;;;;;;5014860;28;20256;-70
2022/02/19 05:39:14;;;;;;;8.37;2.17;;;;;;;;;;5010418;28;20236;-70
2022/02/19 05:41:43;;;;;;;5.70;1.67;;;;;;;;;;5008192;28;20229;-71
2022/02/19 05:44:11;;;;;;;10.30;2.13;;;;;;;;;;5015573;28;20256;-72
2022/02/19 05:46:40;;;;;;;8.13;2.00;;;;;;;;;;5019051;28;20700;-73
2022/02/19 05:49:09;;;;;;;9.10;2.20;;;;;;;;;;5018858;28;20644;-72
2022/02/19 05:51:37;;;;;;;9.70;2.03;;;;;;;;;;5005945;28;20636;-72
2022/02/19 05:54:08;;;;;;;11.53;2.17;;;;;;;;;;5018704;28;20246;-72
2022/02/19 05:56:36;;;;;;;6.33;2.03;;;;;;;;;;5018653;28;20275;-72
2022/02/19 05:59:04;;;;;;;6.93;1.80;;;;;;;;;;5018843;28;20247;-72
2022/02/19 06:01:32;;;;;;;11.53;2.80;;;;;;;;;;5019042;28;20247;-71
2022/02/19 06:04:00;;;;;;;8.17;2.33;;;;;;;;;;5018644;28;20246;-71
2022/02/19 06:06:29;;;;;;;6.13;1.90;;;;;;;;;;5018210;28;20316;-71
2022/02/19 06:08:57;;;;;;;10.07;2.00;;;;;;;;;;5017973;28;20395;-70
2022/02/19 06:11:25;;;;;;;8.90;2.17;;;;;;;;;;5032672;28;20323;-71
2022/02/19 06:13:53;;;;;;;11.33;2.57;;;;;;;;;;5034276;28;20268;-71
2022/02/19 06:16:21;;;;;;;11.23;2.63;;;;;;;;;;5037562;28;20279;-67
2022/02/19 06:18:49;;;;;;;4.97;1.97;;;;;;;;;;5035973;28;20203;-65
2022/02/19 06:21:17;;;;;;;12.77;2.57;;;;;;;;;;5036040;28;20199;-65
2022/02/19 06:23:47;;;;;;;7.07;2.37;;;;;;;;;;5033396;28;20235;-65
2022/02/19 06:26:15;;;;;;;8.53;1.97;;;;;;;;;;5032511;28;20310;-65
2022/02/19 06:28:43;;;;;;;12.07;2.70;;;;;;;;;;5036813;28;20275;-65
2022/02/19 06:31:11;;;;;;;5.10;1.90;;;;;;;;;;5036211;28;20227;-65
2022/02/19 06:33:39;;;;;;;12.70;2.10;;;;;;;;;;5035391;28;20231;-65
2022/02/19 06:36:07;;;;;;;9.53;2.20;;;;;;;;;;5036069;28;20279;-66
2022/02/19 06:38:39;;;;;;;7.67;2.00;;;;;;;;;;5037158;28;20311;-66
2022/02/19 06:41:09;;;;;;;8.53;2.07;;;;;;;;;;5023613;28;20578;-63
2022/02/19 06:43:37;;;;;;;6.00;1.70;;;;;;;;;;5028395;28;20298;-63
2022/02/19 06:46:05;;;;;;;9.80;2.37;;;;;;;;;;5033672;28;20581;-63
2022/02/19 06:48:33;;;;;;;5.50;1.97;;;;;;;;;;5036862;28;20282;-65
2022/02/19 06:51:01;;;;;;;12.20;1.90;;;;;;;;;;5035789;28;20278;-72
2022/02/19 06:53:29;;;;;;;10.00;2.80;;;;;;;;;;5022897;28;20204;-71
2022/02/19 06:55:57;;;;;;;3.93;1.70;;;;;;;;;;5017556;28;20265;-70
2022/02/19 06:58:27;;;;;;;11.30;2.77;;;;;;;;;;5017360;28;20271;-72
2022/02/19 07:00:55;;;;;;;10.97;2.33;;;;;;;;;;5022509;28;20611;-72
2022/02/19 07:03:23;;;;;;;6.90;1.83;;;;;;;;;;5021738;28;20208;-71
2022/02/19 07:05:53;;;;;;;11.20;2.50;;;;;;;;;;5017459;28;20351;-72
2022/02/19 07:08:22;;;;;;;8.77;2.03;;;;;;;;;;5033200;28;20204;-72
2022/02/19 07:10:50;;;;;;;6.57;2.03;;;;;;;;;;5027005;28;20278;-71
2022/02/19 07:13:18;;;;;;;4.97;2.03;;;;;;;;;;5017190;28;20650;-71
2022/02/19 07:15:47;;;;;;;11.93;1.90;;;;;;;;;;5018080;28;20797;-72
2022/02/19 07:18:15;;;;;;;13.40;2.40;;;;;;;;;;5037157;28;20319;-73
2022/02/19 07:20:43;;;;;;;10.33;2.33;;;;;;;;;;5036116;28;20234;-73
2022/02/19 07:23:11;;;;;;;9.53;2.50;;;;;;;;;;5033889;28;20259;-73
2022/02/19 07:25:40;;;;;;;13.33;2.83;;;;;;;;;;5034046;28;20754;-71
2022/02/19 07:28:07;;;;;;;14.63;2.20;;;;;;;;;;5033904;28;20200;-71
2022/02/19 07:30:38;;;;;;;6.27;2.30;;;;;;;;;;5035454;28;20235;-71
2022/02/19 07:33:08;;;;;;;11.37;1.90;;;;;;;;;;5031918;28;20328;-70
2022/02/19 07:35:36;;;;;;;9.23;2.87;;;;;;;;;;5017224;28;20263;-70
2022/02/19 07:38:04;;;;;;;6.10;2.13;;;;;;;;;;5032584;28;20310;-72
2022/02/19 07:40:32;;;;;;;10.57;2.83;;;;;;;;;;5035756;28;20295;-71
2022/02/19 07:43:01;;;;;;;8.97;2.37;;;;;;;;;;5037368;28;20212;-72
2022/02/19 07:45:29;;;;;;;9.30;2.03;;;;;;;;;;5037184;28;20331;-72
2022/02/19 07:47:57;;;;;;;11.60;2.57;;;;;;;;;;5037032;28;20235;-71
2022/02/19 07:58:44;;;;;;;6.53;2.07;;;;;;;;;;5038534;28;20223;-71
2022/02/19 08:01:12;;;;;;;7.40;2.07;;;;;;;;;;5032876;28;20683;-71
2022/02/19 08:03:40;;;;;;;10.37;2.57;;;;;;;;;;5025299;28;20207;-71
2022/02/19 08:06:10;;;;;;;10.30;2.20;;;;;;;;;;5024993;28;20251;-71
2022/02/19 08:08:38;;;;;;;7.03;2.10;;;;;;;;;;5032714;28;20204;-71
2022/02/19 08:11:06;;;;;;;9.67;2.07;;;;;;;;;;5039026;28;20261;-72
2022/02/19 08:13:34;;;;;;;7.47;2.30;;;;;;;;;;5039062;28;20282;-71
2022/02/19 08:16:02;;;;;;;9.80;2.40;;;;;;;;;;5039239;28;20238;-69
2022/02/19 08:18:31;;;;;;;11.37;2.27;;;;;;;;;;5038833;28;20305;-71
2022/02/19 08:20:59;;;;;;;5.37;2.10;;;;;;;;;;5038916;28;20205;-71
2022/02/19 08:23:29;;;;;;;6.17;1.73;;;;;;;;;;5036418;28;20635;-71
2022/02/19 08:25:57;;;;;;;8.77;2.00;;;;;;;;;;5039198;28;20224;-70
2022/02/19 08:28:25;;;;;;;12.03;2.20;;;;;;;;;;5037535;28;20283;-69
2022/02/19 08:30:53;;;;;;;4.83;2.13;;;;;;;;;;5038421;28;20214;-70
2022/02/19 08:33:21;;;;;;;7.77;1.57;;;;;;;;;;5036066;28;20199;-71
2022/02/19 08:35:49;;;;;;;8.27;2.17;;;;;;;;;;5037244;28;20259;-70
2022/02/19 08:38:17;;;;;;;3.93;1.43;;;;;;;;;;5039278;28;20279;-70
2022/02/19 08:40:47;;;;;;;5.40;1.57;;;;;;;;;;5038596;28;20671;-71
2022/02/19 08:43:15;;;;;;;5.83;1.93;;;;;;;;;;5036708;28;20204;-71
2022/02/19 08:45:43;;;;;;;9.37;2.00;;;;;;;;;;5037250;28;20223;-70
2022/02/19 08:48:11;;;;;;;11.30;2.17;;;;;;;;;;5036774;28;20231;-71
2022/02/19 08:50:40;;;;;;;8.87;2.27;;;;;;;;;;5038840;28;20195;-70
2022/02/19 08:53:09;;;;;;;10.37;2.90;;;;;;;;;;5036017;28;20207;-70
2022/02/19 08:55:37;;;;;;;9.90;2.10;;;;;;;;;;5037581;28;20769;-70
2022/02/19 08:58:07;;;;;;;11.87;2.70;;;;;;;;;;5034615;28;20216;-70
2022/02/19 09:00:35;;;;;;;6.57;2.10;;;;;;;;;;5039113;28;20210;-71
2022/02/19 09:03:04;;;;;;;6.50;1.87;;;;;;;;;;5039077;28;20249;-70
2022/02/19 09:05:32;;;;;;;8.70;2.40;;;;;;;;;;5037107;28;20216;-70
2022/02/19 09:08:00;;;;;;;5.17;1.87;;;;;;;;;;5037792;28;20207;-70
2022/02/19 09:10:28;;;;;;;11.83;1.80;;;;;;;;;;5032563;28;20238;-70
2022/02/19 09:12:57;;;;;;;8.70;2.43;;;;;;;;;;5037886;28;20231;-70
2022/02/19 09:15:27;;;;;;;10.07;2.53;;;;;;;;;;5035035;28;20322;-70
2022/02/19 09:17:55;;;;;;;8.17;2.13;;;;;;;;;;5038505;28;20231;-68
2022/02/19 09:20:23;;;;;;;9.50;2.87;;;;;;;;;;5037549;28;20211;-70
2022/02/19 09:22:51;;;;;;;8.53;2.33;;;;;;;;;;5038534;28;20690;-70
2022/02/19 09:25:19;;;;;;;7.40;1.90;;;;;;;;;;5036196;28;20223;-70
2022/02/19 09:27:49;;;;;;;7.23;1.40;;;;;;;;;;5036518;28;20286;-71
2022/02/19 09:30:17;;;;;;;6.13;1.90;;;;;;;;;;5035793;28;20261;-70
2022/02/19 09:32:46;;;;;;;12.77;2.87;;;;;;;;;;5037862;28;20227;-70
2022/02/19 09:35:15;;;;;;;5.67;1.93;;;;;;;;;;5036636;28;20277;-71
2022/02/19 09:37:43;;;;;;;12.10;2.07;;;;;;;;;;5036916;28;20286;-70
2022/02/19 09:40:11;;;;;;;6.83;2.03;;;;;;;;;;5034680;28;20634;-69
2022/02/19 09:42:40;;;;;;;9.00;1.90;;;;;;;;;;5035768;28;20694;-71
2022/02/19 09:45:09;;;;;;;10.10;2.23;;;;;;;;;;5037106;28;20195;-71
2022/02/19 09:47:37;;;;;;;20.53;2.37;;;;;;;;;;5036636;28;20206;-71
2022/02/19 09:50:08;;;;;;;7.17;1.90;;;;;;;;;;5035690;28;20278;-71
2022/02/19 09:52:37;;;;;;;8.60;2.00;;;;;;;;;;5035735;28;20726;-72
2022/02/19 09:55:06;;;;;;;5.50;1.67;;;;;;;;;;5037527;28;20204;-71
2022/02/19 09:57:34;;;;;;;10.07;2.50;;;;;;;;;;5036055;28;20232;-70
2022/02/19 10:00:03;;;;;;;8.63;2.17;;;;;;;;;;5034697;28;20655;-70
2022/02/19 10:02:35;;;;;;;12.90;2.53;;;;;;;;;;5034333;28;20199;-72
2022/02/19 10:05:15;;;;;;;8.70;1.67;;;;;;;;;;5033765;28;20230;-72
2022/02/19 10:07:43;;;;;;;9.40;2.40;;;;;;;;;;5035333;28;20191;-72
2022/02/19 10:10:24;;;;;;;5.57;2.40;;;;;;;;;;5033421;28;20258;-71
2022/02/19 10:12:52;;;;;;;7.10;3.63;;;;;;;;;;5033864;28;20207;-72
2022/02/19 10:15:21;;;;;;;9.43;2.00;;;;;;;;;;5035157;28;20306;-71
2022/02/19 10:17:50;;;;;;;11.23;2.30;;;;;;;;;;5033343;28;20231;-71
2022/02/19 10:20:20;;;;;;;3.80;1.73;;;;;;;;;;5031408;28;20224;-73
2022/02/19 10:22:48;;;;;;;8.90;1.90;;;;;;;;;;5035692;28;20203;-72
2022/02/19 10:25:21;;;;;;;6.80;2.03;;;;;;;;;;5035865;28;20629;-71
2022/02/19 10:27:54;;;;;;;7.77;2.17;;;;;;;;;;5034889;28;20614;-72
2022/02/19 10:30:23;;;;;;;11.33;2.50;;;;;;;;;;5037738;28;20235;-71
2022/02/19 10:32:52;;;;;;;3.63;1.67;;;;;;;;;;5037848;28;20204;-72
2022/02/19 10:35:28;;;;;;;4.17;1.87;;;;;;;;;;5037119;28;20719;-70
2022/02/19 10:37:55;;;;;;;11.87;2.40;;;;;;;;;;5037489;28;20289;-70
2022/02/19 10:40:34;;;;;;;9.30;2.37;;;;;;;;;;5037431;28;20314;-72
2022/02/19 10:43:04;;;;;;;7.00;1.90;;;;;;;;;;5037453;28;20265;-72
2022/02/19 10:45:32;;;;;;;7.40;2.10;;;;;;;;;;5037250;28;20232;-71
2022/02/19 10:48:12;;;;;;;6.10;1.40;;;;;;;;;;5037711;28;20204;-71
2022/02/19 10:50:41;;;;;;;8.67;1.93;;;;;;;;;;5037240;28;20222;-70
2022/02/19 10:53:10;;;;;;;9.20;2.23;;;;;;;;;;5037484;28;20210;-71
2022/02/19 10:55:38;;;;;;;7.23;1.80;;;;;;;;;;5037160;28;20255;-71
2022/02/19 10:58:07;;;;;;;7.77;2.03;;;;;;;;;;5037660;28;20250;-71
2022/02/19 11:00:36;;;;;;;7.60;2.20;;;;;;;;;;5037343;28;20274;-71
2022/02/19 11:03:06;;;;;;;5.33;1.90;;;;;;;;;;5037670;28;20257;-72
2022/02/19 11:05:34;;;;;;;11.37;2.10;;;;;;;;;;5037055;28;20234;-72
2022/02/19 11:08:04;;;;;;;4.23;1.40;;;;;;;;;;5034885;28;20283;-72
2022/02/19 11:10:33;;;;;;;6.40;1.93;;;;;;;;;;5032124;28;20315;-70
2022/02/19 11:13:02;;;;;;;3.27;1.70;;;;;;;;;;5017606;28;20204;-70
2022/02/19 11:15:30;;;;;;;8.20;1.50;;;;;;;;;;5017549;28;20255;-72
2022/02/19 11:17:58;;;;;;;6.77;1.87;;;;;;;;;;5036418;28;20231;-72
2022/02/19 11:20:26;;;;;;;6.93;2.40;;;;;;;;;;5036621;28;20265;-71
2022/02/19 11:22:55;;;;;;;7.37;2.13;;;;;;;;;;5023528;28;20246;-71
2022/02/19 11:25:25;;;;;;;4.03;1.80;;;;;;;;;;5024216;28;20234;-70
2022/02/19 11:27:55;;;;;;;7.10;2.43;;;;;;;;;;5037395;28;20291;-71
2022/02/19 11:30:24;;;;;;;4.30;1.57;;;;;;;;;;5036976;28;20207;-72
2022/02/19 11:32:53;;;;;;;9.40;2.23;;;;;;;;;;5039332;28;20238;-71
2022/02/19 11:35:31;;;;;;;8.57;2.70;;;;;;;;;;5040806;28;20721;-72
2022/02/19 11:37:59;;;;;;;11.47;1.93;;;;;;;;;;5041275;28;20241;-72
2022/02/19 11:40:43;;;;;;;6.10;2.00;;;;;;;;;;5041268;28;20281;-71
2022/02/19 11:43:26;;;;;;;4.90;1.47;;;;;;;;;;5040942;28;20231;-70
2022/02/19 11:45:54;;;;;;;5.90;2.03;;;;;;;;;;5040956;28;20761;-71
2022/02/19 11:48:26;;;;;;;5.67;2.00;;;;;;;;;;5040827;28;20282;-71
2022/02/19 11:51:09;;;;;;;4.87;1.80;;;;;;;;;;5040350;28;20231;-71
2022/02/19 11:53:37;;;;;;;2.83;1.40;;;;;;;;;;5040652;28;20293;-71
2022/02/19 11:56:11;;;;;;;4.23;1.77;;;;;;;;;;5040669;28;20254;-71
2022/02/19 11:58:57;;;;;;;4.03;1.60;;;;;;;;;;5039949;28;20278;-69
2022/02/19 12:01:25;;;;;;;5.17;1.97;;;;;;;;;;5026963;28;20306;-71
2022/02/19 12:04:14;;;;;;;4.70;1.87;;;;;;;;;;5034775;28;20295;-71
2022/02/19 12:06:42;;;;;;;5.67;1.40;;;;;;;;;;5036997;28;20287;-71
2022/02/19 12:09:14;;;;;;;4.87;2.07;;;;;;;;;;5036074;28;20655;-71
2022/02/19 12:12:06;;;;;;;5.57;1.70;;;;;;;;;;5020626;28;20747;-71
2022/02/19 12:14:46;;;;;;;2.40;1.27;;;;;;;;;;5014560;28;20204;-71
2022/02/19 12:17:14;;;;;;;4.87;1.57;;;;;;;;;;5040322;28;20224;-71
2022/02/19 12:20:02;;;;;;;4.33;1.60;;;;;;;;;;5040274;28;20207;-72
2022/02/19 12:22:41;;;;;;;8.77;1.57;;;;;;;;;;5039795;28;20211;-71
2022/02/19 12:25:10;;;;;;;4.63;1.40;;;;;;;;;;5041351;28;20239;-71
2022/02/19 12:27:38;;;;;;;2.50;1.10;;;;;;;;;;5041427;28;20246;-72
2022/02/19 12:30:31;;;;;;;6.60;1.30;;;;;;;;;;5040106;28;20643;-71
2022/02/19 12:33:01;;;;;;;2.03;1.23;;;;;;;;;;5029746;28;20239;-71
2022/02/19 12:35:35;;;;;;;2.77;1.07;;;;;;;;;;5040114;28;20232;-71
2022/02/19 12:38:04;;;;;;;3.70;1.20;;;;;;;;;;5040007;28;20265;-71
2022/02/19 12:40:33;;;;;;;2.57;1.47;;;;;;;;;;5039991;28;20270;-71
2022/02/19 12:43:02;;;;;;;3.07;1.40;;;;;;;;;;5039642;28;20200;-71
2022/02/19 12:45:32;;;;;;;3.77;1.20;;;;;;;;;;5039544;28;20326;-71
2022/02/19 12:48:02;;;;;;;5.30;1.67;;;;;;;;;;5039908;28;20710;-71
2022/02/19 12:50:31;;;;;;;3.70;1.20;;;;;;;;;;5039964;28;20257;-71
2022/02/19 12:52:59;;;;;;;4.67;1.47;;;;;;;;;;5039796;28;20683;-72
2022/02/19 12:55:27;;;;;;;4.57;1.50;;;;;;;;;;5039563;28;20659;-71
2022/02/19 12:58:00;;;;;;;4.97;1.40;;;;;;;;;;5039600;28;20211;-71
2022/02/19 13:00:28;;;;;;;3.03;1.10;;;;;;;;;;5039811;28;20227;-71
2022/02/19 13:02:57;;;;;;;2.27;1.17;;;;;;;;;;5040110;28;20212;-71
2022/02/19 13:05:27;;;;;;;4.03;1.50;;;;;;;;;;5039409;28;20265;-71
2022/02/19 13:07:55;;;;;;;4.23;1.03;;;;;;;;;;5039691;28;20207;-71
2022/02/19 13:10:23;;;;;;;2.50;1.10;;;;;;;;;;5039423;28;20326;-71
2022/02/19 13:12:51;;;;;;;2.70;1.40;;;;;;;;;;5039518;28;20211;-69
2022/02/19 13:15:21;;;;;;;2.73;1.37;;;;;;;;;;5036154;28;20228;-70
2022/02/19 13:17:53;;;;;;;3.73;1.30;;;;;;;;;;5028809;28;20266;-73
2022/02/19 13:20:22;;;;;;;5.37;1.73;;;;;;;;;;5027565;28;20231;-70
2022/02/19 13:22:53;;;;;;;3.57;1.40;;;;;;;;;;5027886;28;20231;-71
2022/02/19 13:25:23;;;;;;;3.57;1.53;;;;;;;;;;5029732;28;20247;-71
2022/02/19 13:27:53;;;;;;;4.83;1.17;;;;;;;;;;5030887;28;20291;-71
2022/02/19 13:30:22;;;;;;;3.53;1.30;;;;;;;;;;5030487;28;20212;-70
2022/02/19 13:32:51;;;;;;;2.97;1.30;;;;;;;;;;5030639;28;20207;-71
2022/02/19 13:35:21;;;;;;;4.50;1.40;;;;;;;;;;5031984;28;20223;-69
2022/02/19 13:37:50;;;;;;;4.60;1.77;;;;;;;;;;5037238;28;20253;-69
2022/02/19 13:40:20;;;;;;;3.40;1.10;;;;;;;;;;5029065;28;20212;-69
2022/02/19 13:42:48;;;;;;;4.00;1.50;;;;;;;;;;5030603;28;20207;-69
2022/02/19 13:45:27;;;;;;;2.37;1.30;;;;;;;;;;5038817;28;20234;-70
2022/02/19 13:47:55;;;;;;;3.00;1.27;;;;;;;;;;5037615;28;20635;-71
2022/02/19 13:50:27;;;;;;;3.60;2.10;;;;;;;;;;5038212;28;20257;-70
2022/02/19 13:53:08;;;;;;;3.80;1.67;;;;;;;;;;5038595;28;20749;-70
2022/02/19 13:55:39;;;;;;;3.73;1.40;;;;;;;;;;5038725;28;20227;-70
2022/02/19 13:58:08;;;;;;;4.10;1.50;;;;;;;;;;5038808;28;20215;-70
2022/02/19 14:00:36;;;;;;;5.93;1.40;;;;;;;;;;5038885;28;20697;-72
2022/02/19 14:03:05;;;;;;;5.90;1.17;;;;;;;;;;5039230;28;20212;-70
2022/02/19 14:05:36;;;;;;;5.13;1.30;;;;;;;;;;5037981;28;20310;-70
2022/02/19 14:08:04;;;;;;;4.00;1.33;;;;;;;;;;5038396;28;20276;-70
2022/02/19 14:10:32;;;;;;;4.47;1.50;;;;;;;;;;5038328;28;20325;-70
2022/02/19 14:13:09;;;;;;;4.47;1.40;;;;;;;;;;5038429;28;20246;-70
2022/02/19 14:15:37;;;;;;;4.60;1.50;;;;;;;;;;5038133;28;20301;-70
2022/02/19 14:18:06;;;;;;;4.83;1.30;;;;;;;;;;5032296;28;20295;-70
2022/02/19 14:20:34;;;;;;;2.63;1.23;;;;;;;;;;5037956;28;20235;-70
2022/02/19 14:23:10;;;;;;;3.57;1.20;;;;;;;;;;5038288;28;20242;-70
2022/02/19 14:25:41;;;;;;;5.63;1.63;;;;;;;;;;5037837;28;20655;-70
2022/02/19 14:28:13;;;;;;;2.57;1.40;;;;;;;;;;5038447;28;20207;-70
2022/02/19 14:30:42;;;;;;;3.37;1.10;;;;;;;;;;5038303;28;20234;-70
2022/02/19 14:33:10;;;;;;;3.23;1.30;;;;;;;;;;5038240;28;20242;-70
2022/02/19 14:35:39;;;;;;;2.93;1.20;;;;;;;;;;5037904;28;20263;-70
2022/02/19 14:38:20;;;;;;;3.67;1.53;;;;;;;;;;5038121;28;20287;-70
2022/02/19 14:40:49;;;;;;;4.07;1.60;;;;;;;;;;5038067;28;20267;-70
2022/02/19 14:43:19;;;;;;;2.50;1.50;;;;;;;;;;5037962;28;20263;-70
2022/02/19 14:45:48;;;;;;;3.37;1.10;;;;;;;;;;5037918;28;20266;-70
2022/02/19 14:48:16;;;;;;;2.33;0.83;;;;;;;;;;5038080;28;20271;-70
2022/02/19 14:50:45;;;;;;;3.07;1.20;;;;;;;;;;5037690;28;20231;-70
2022/02/19 14:53:13;;;;;;;3.17;0.93;;;;;;;;;;5037831;28;20234;-71
2022/02/19 14:56:00;;;;;;;4.47;1.30;;;;;;;;;;5037494;28;20238;-69
2022/02/19 14:58:30;;;;;;;1.63;1.00;;;;;;;;;;5037789;28;20242;-72
2022/02/19 15:01:00;;;;;;;5.03;1.77;;;;;;;;;;5037439;28;20295;-71
2022/02/19 15:03:28;;;;;;;2.10;1.17;;;;;;;;;;5037887;28;20207;-70